Foster, Virginia
Current Conditions -  °F | °C
As of 8:35 AM on Monday 22 Dec 2014 (Local Time) from KW75 Reporting Station
Overcast Overcast  
Wind Chill: 30°   Ceiling: 6000
Heat Index: 37°   Visibility: 5mi
Dew Point: 34°   Wind: 9mph
Humidity: 91%   Direction: 60°ENE
Pressure: 30.24"   Gusts: NA
Location:  37.45°N, 76.39°W
Report Text: KW75 221335Z AUTO 06008KT 5SM SCT043 BKN060 OVC080 03/01 A3024 RMK AO1 P0002 T00270013
Loading
Personal Weather Stations






























Interactive Weather Map New forecast layout! Learn more

10-Day Weather Forecast

Advertisements
Track Severe Weather on mobile